createdAt,value
2018-12-14T00:01:45.061Z,21.40
2018-12-14T00:04:13.531Z,18.97
2018-12-14T00:06:42.043Z,22.60
2018-12-14T00:09:10.583Z,20.43
2018-12-14T00:11:45.402Z,22.70
2018-12-14T00:14:09.651Z,21.27
2018-12-14T00:16:38.118Z,23.83
2018-12-14T00:19:06.594Z,20.53
2018-12-14T00:21:35.099Z,21.33
2018-12-14T00:24:03.576Z,18.90
2018-12-14T00:26:32.051Z,21.80
2018-12-14T00:29:00.531Z,22.13
2018-12-14T00:31:29.054Z,22.77
2018-12-14T00:33:57.532Z,20.03
2018-12-14T00:36:26.020Z,20.73
2018-12-14T00:38:54.694Z,23.97
2018-12-14T00:41:23.170Z,24.47
2018-12-14T00:43:51.639Z,21.43
2018-12-14T00:46:20.120Z,22.53
2018-12-14T00:48:48.588Z,21.80
2018-12-14T00:51:17.169Z,24.73
2018-12-14T00:53:45.647Z,19.67
2018-12-14T00:56:14.112Z,23.50
2018-12-14T00:58:42.580Z,24.20
2018-12-14T01:01:11.059Z,23.77
2018-12-14T01:03:39.535Z,24.47
2018-12-14T01:06:08.002Z,23.30
2018-12-14T01:10:00.662Z,24.27
2018-12-14T01:12:29.122Z,21.23
2018-12-14T01:14:57.632Z,24.30
2018-12-14T01:17:26.243Z,20.60
2018-12-14T01:19:54.835Z,26.60
2018-12-14T01:22:23.332Z,22.63
2018-12-14T01:24:51.801Z,21.63
2018-12-14T01:27:20.279Z,24.13
2018-12-14T01:29:48.832Z,24.00
2018-12-14T01:32:17.307Z,24.87
2018-12-14T01:34:45.782Z,22.23
2018-12-14T01:37:14.277Z,19.70
2018-12-14T01:39:42.746Z,19.57
2018-12-14T01:42:11.218Z,17.53
2018-12-14T01:44:39.810Z,25.23
2018-12-14T01:47:08.307Z,19.20
2018-12-14T01:49:36.775Z,22.07
2018-12-14T01:52:05.285Z,24.13
2018-12-14T01:54:33.746Z,19.77
2018-12-14T01:57:02.207Z,24.60
2018-12-14T01:59:30.693Z,19.70
2018-12-14T02:01:59.189Z,22.23
2018-12-14T02:04:27.659Z,22.63
2018-12-14T02:06:56.140Z,23.27
2018-12-14T02:09:24.615Z,21.77
2018-12-14T02:14:35.268Z,21.03
2018-12-14T02:17:18.355Z,21.40
2018-12-14T02:19:48.062Z,24.93
2018-12-14T02:22:24.283Z,23.63
2018-12-14T02:24:53.042Z,28.93
2018-12-14T02:27:21.501Z,21.37
2018-12-14T02:29:49.973Z,24.30
2018-12-14T02:32:23.409Z,28.87
2018-12-14T02:35:05.045Z,24.73
2018-12-14T02:37:33.516Z,22.97
2018-12-14T02:40:02.058Z,27.80
2018-12-14T02:42:30.523Z,24.53
2018-12-14T02:44:59.011Z,31.80
2018-12-14T02:47:27.489Z,26.87
2018-12-14T02:49:55.985Z,23.33
2018-12-14T02:52:24.459Z,28.20
2018-12-14T02:55:03.379Z,22.60
2018-12-14T02:57:31.942Z,29.53
2018-12-14T03:00:00.488Z,25.63
2018-12-14T03:02:29.090Z,26.00
2018-12-14T03:04:57.547Z,21.17
2018-12-14T03:07:26.008Z,25.67
2018-12-14T03:09:54.519Z,24.60
2018-12-14T03:12:26.742Z,24.83
2018-12-14T03:14:53.536Z,26.53
2018-12-14T03:17:22.336Z,24.90
2018-12-14T03:19:50.930Z,25.53
2018-12-14T03:22:19.520Z,25.97
2018-12-14T03:24:47.995Z,24.97
2018-12-14T03:27:16.589Z,26.60
2018-12-14T03:29:45.052Z,24.53
2018-12-14T03:32:13.659Z,28.30
2018-12-14T03:34:42.112Z,24.53
2018-12-14T03:37:10.590Z,22.63
2018-12-14T03:39:39.074Z,22.37
2018-12-14T03:42:07.529Z,22.53
2018-12-14T03:44:36.007Z,23.50
2018-12-14T03:47:04.595Z,23.77
2018-12-14T03:49:33.078Z,20.63
2018-12-14T03:52:01.544Z,22.03
2018-12-14T03:54:30.015Z,20.60
2018-12-14T03:56:58.487Z,21.70
2018-12-14T03:59:26.960Z,21.47
2018-12-14T04:01:55.516Z,21.83
2018-12-14T04:04:23.955Z,20.90
2018-12-14T04:06:52.467Z,21.63
2018-12-14T04:09:20.942Z,19.47
2018-12-14T04:11:49.391Z,21.03
2018-12-14T04:14:17.855Z,19.17
2018-12-14T04:16:46.336Z,25.83
2018-12-14T04:19:14.934Z,22.37
2018-12-14T04:21:43.438Z,19.80
2018-12-14T04:24:11.925Z,22.07
2018-12-14T04:26:40.496Z,23.23
2018-12-14T04:29:10.520Z,19.50
2018-12-14T04:31:39.012Z,19.53
2018-12-14T04:34:07.487Z,22.30
2018-12-14T04:36:36.058Z,24.73
2018-12-14T04:39:07.451Z,27.03
2018-12-14T04:41:35.924Z,21.17
2018-12-14T04:44:04.427Z,21.23
2018-12-14T04:46:33.002Z,23.07
2018-12-14T04:49:02.186Z,20.33
2018-12-14T04:51:30.652Z,21.43
2018-12-14T04:53:59.217Z,22.60
2018-12-14T04:56:27.673Z,25.07
2018-12-14T04:58:56.132Z,22.37
2018-12-14T05:01:24.611Z,27.90
2018-12-14T05:03:56.525Z,23.57
2018-12-14T05:06:25.001Z,24.23
2018-12-14T05:08:53.739Z,21.93
2018-12-14T05:11:22.245Z,22.00
2018-12-14T05:13:50.822Z,23.70
2018-12-14T05:16:21.092Z,24.20
2018-12-14T05:18:52.622Z,23.40
2018-12-14T05:21:21.230Z,24.03
2018-12-14T05:23:49.788Z,22.67
2018-12-14T05:26:20.093Z,21.90
2018-12-14T05:28:49.603Z,27.73
2018-12-14T05:31:19.932Z,23.83
2018-12-14T05:33:49.335Z,27.90
2018-12-14T05:36:18.751Z,24.70
2018-12-14T05:38:47.626Z,24.13
2018-12-14T05:41:16.232Z,26.73
2018-12-14T05:43:44.898Z,25.40
2018-12-14T05:46:13.440Z,20.07
2018-12-14T05:48:42.044Z,24.23
2018-12-14T05:51:10.653Z,24.30
2018-12-14T05:53:39.211Z,23.67
2018-12-14T05:56:07.751Z,23.77
2018-12-14T05:58:36.310Z,22.87
2018-12-14T06:01:04.864Z,23.27
2018-12-14T06:03:33.560Z,20.37
2018-12-14T06:06:02.983Z,25.53
2018-12-14T06:08:31.530Z,25.57
2018-12-14T06:11:00.160Z,28.65
2018-12-14T06:13:28.731Z,27.03
2018-12-14T06:15:57.202Z,26.00
2018-12-14T06:18:25.656Z,24.57
2018-12-14T06:20:54.121Z,24.93
2018-12-14T06:23:22.588Z,31.13
2018-12-14T06:25:51.051Z,27.77
2018-12-14T06:28:19.519Z,27.93
2018-12-14T06:30:47.993Z,23.43
2018-12-14T06:33:16.451Z,26.40
2018-12-14T06:35:44.920Z,25.47
2018-12-14T06:38:13.398Z,28.17
2018-12-14T06:40:41.882Z,27.13
2018-12-14T06:43:15.441Z,28.63
2018-12-14T06:45:40.890Z,27.07
2018-12-14T06:48:09.397Z,27.80
2018-12-14T06:50:37.939Z,29.10
2018-12-14T06:53:06.754Z,28.53
2018-12-14T06:55:35.219Z,28.00
2018-12-14T06:58:03.755Z,28.07
2018-12-14T07:00:32.260Z,32.53
2018-12-14T07:03:00.761Z,45.40
2018-12-14T07:05:29.292Z,33.90
2018-12-14T07:07:57.766Z,27.10
2018-12-14T07:10:26.308Z,30.27
2018-12-14T07:12:54.789Z,32.77
2018-12-14T07:15:23.267Z,30.13
2018-12-14T07:17:51.918Z,32.80
2018-12-14T07:20:20.381Z,30.97
2018-12-14T07:22:48.921Z,32.97
2018-12-14T07:25:17.446Z,34.53
2018-12-14T07:27:45.907Z,27.83
2018-12-14T07:30:14.400Z,30.03
2018-12-14T07:32:42.885Z,34.07
2018-12-14T07:35:11.342Z,24.43
2018-12-14T07:37:39.834Z,33.07
2018-12-14T07:40:08.606Z,26.00
2018-12-14T07:42:37.091Z,31.40
2018-12-14T07:45:06.137Z,31.03
2018-12-14T07:47:34.708Z,27.70
2018-12-14T07:50:03.513Z,28.80
2018-12-14T07:52:32.148Z,28.07
2018-12-14T07:55:00.722Z,28.20
2018-12-14T07:57:29.183Z,26.70
2018-12-14T07:59:57.634Z,25.40
2018-12-14T08:02:26.075Z,25.57
2018-12-14T08:04:54.529Z,28.57
2018-12-14T08:07:22.985Z,36.10
2018-12-14T08:09:51.426Z,34.20
2018-12-14T08:12:19.926Z,33.33
2018-12-14T08:14:48.394Z,28.47
2018-12-14T08:17:16.881Z,27.63
2018-12-14T08:19:45.311Z,32.17
2018-12-14T08:22:13.759Z,32.83
2018-12-14T08:24:42.210Z,32.43
2018-12-14T08:27:10.694Z,32.97
2018-12-14T08:29:39.153Z,24.73
2018-12-14T08:32:07.613Z,32.50
2018-12-14T08:34:36.071Z,36.57
2018-12-14T08:37:04.542Z,30.13
2018-12-14T08:39:33.004Z,35.33
2018-12-14T08:42:01.457Z,29.63
2018-12-14T08:44:29.904Z,34.70
2018-12-14T08:46:58.347Z,33.80
2018-12-14T08:49:26.818Z,33.57
2018-12-14T08:51:55.277Z,34.63
2018-12-14T08:54:23.731Z,28.73
2018-12-14T08:56:52.183Z,33.70
2018-12-14T08:59:20.653Z,29.33
2018-12-14T09:01:49.118Z,29.57
2018-12-14T09:04:17.607Z,27.77
2018-12-14T09:06:46.046Z,32.27
2018-12-14T09:09:14.548Z,28.90
2018-12-14T09:11:43.030Z,30.03
2018-12-14T09:14:11.603Z,32.43
2018-12-14T09:16:40.126Z,29.60
2018-12-14T09:19:08.600Z,28.97
2018-12-14T09:21:37.107Z,31.80
2018-12-14T09:24:05.576Z,26.20
2018-12-14T09:26:34.047Z,25.27
2018-12-14T09:29:02.652Z,25.30
2018-12-14T09:31:31.634Z,28.20
2018-12-14T09:34:00.119Z,30.13
2018-12-14T09:36:28.600Z,26.67
2018-12-14T09:38:57.108Z,27.90
2018-12-14T09:41:25.556Z,26.93
2018-12-14T09:43:54.528Z,24.43
2018-12-14T09:46:23.187Z,31.50
2018-12-14T09:48:51.666Z,26.63
2018-12-14T09:51:20.874Z,26.83
2018-12-14T09:53:49.303Z,32.07
2018-12-14T09:56:17.862Z,28.40
2018-12-14T09:58:47.008Z,27.27
2018-12-14T10:01:16.006Z,29.63
2018-12-14T10:03:45.607Z,29.13
2018-12-14T10:06:15.785Z,24.43
2018-12-14T10:08:45.108Z,28.70
2018-12-14T10:11:14.858Z,28.00
2018-12-14T10:13:43.755Z,27.57
2018-12-14T10:16:12.594Z,26.83
2018-12-14T10:18:41.925Z,23.90
2018-12-14T10:21:10.560Z,23.30
2018-12-14T10:23:39.906Z,22.20
2018-12-14T10:26:08.463Z,27.70
2018-12-14T10:28:37.127Z,25.97
2018-12-14T10:31:05.661Z,24.60
2018-12-14T10:33:34.646Z,26.07
2018-12-14T10:36:03.347Z,22.67
2018-12-14T10:38:32.659Z,28.43
2018-12-14T10:41:01.268Z,24.17
2018-12-14T10:43:30.425Z,25.57
2018-12-14T10:45:58.896Z,19.53
2018-12-14T10:48:27.982Z,22.10
2018-12-14T10:50:57.092Z,23.77
2018-12-14T10:53:25.929Z,24.00
2018-12-14T10:55:54.394Z,24.47
2018-12-14T10:58:22.866Z,20.80
2018-12-14T11:00:56.785Z,22.57
2018-12-14T11:03:25.346Z,23.27
2018-12-14T11:05:54.314Z,20.80
2018-12-14T11:08:23.290Z,22.80
2018-12-14T11:10:51.783Z,20.43
2018-12-14T11:13:20.621Z,18.70
2018-12-14T11:15:49.661Z,19.53
2018-12-14T11:18:18.127Z,19.30
2018-12-14T11:20:46.593Z,19.20
2018-12-14T11:23:15.834Z,16.63
2018-12-14T11:25:44.300Z,21.43
2018-12-14T11:28:13.511Z,20.00
2018-12-14T11:30:41.996Z,22.43
2018-12-14T11:33:10.786Z,16.80
2018-12-14T11:35:39.748Z,19.93
2018-12-14T11:38:08.217Z,17.80
2018-12-14T11:40:36.741Z,19.20
2018-12-14T11:43:05.215Z,18.97
2018-12-14T11:45:33.996Z,17.27
2018-12-14T11:48:02.471Z,17.43
2018-12-14T11:50:30.970Z,18.87
2018-12-14T11:52:59.843Z,18.37
2018-12-14T11:55:28.314Z,19.60
2018-12-14T11:57:56.917Z,19.13
2018-12-14T12:00:25.777Z,19.10
2018-12-14T12:02:54.342Z,18.87
2018-12-14T12:05:22.836Z,22.23
2018-12-14T12:07:51.563Z,17.67
2018-12-14T12:10:20.021Z,18.87
2018-12-14T12:12:48.632Z,17.20
2018-12-14T12:15:17.135Z,21.67
2018-12-14T12:17:49.388Z,18.73
2018-12-14T12:20:16.596Z,20.27
2018-12-14T12:22:45.527Z,20.43
2018-12-14T12:25:13.995Z,17.80
2018-12-14T12:27:43.127Z,18.50
2018-12-14T12:30:12.528Z,16.73
2018-12-14T12:32:42.859Z,16.10
2018-12-14T12:35:11.362Z,22.33
2018-12-14T12:37:41.356Z,19.23
2018-12-14T12:40:10.492Z,16.53
2018-12-14T12:42:39.152Z,20.07
2018-12-14T12:45:09.085Z,20.00
2018-12-14T12:47:37.828Z,16.67
2018-12-14T12:50:07.965Z,18.00
2018-12-14T12:52:37.041Z,21.37
2018-12-14T12:55:05.933Z,17.10
2018-12-14T12:57:34.597Z,20.03
2018-12-14T13:00:03.569Z,19.67
2018-12-14T13:02:32.606Z,17.70
2018-12-14T13:05:03.274Z,21.67
2018-12-14T13:07:31.784Z,17.83
2018-12-14T13:10:00.311Z,21.57
2018-12-14T13:12:28.882Z,19.17
2018-12-14T13:14:57.702Z,18.27
2018-12-14T13:17:26.257Z,19.90
2018-12-14T13:19:55.163Z,21.30
2018-12-14T13:22:24.151Z,18.97
2018-12-14T13:24:53.076Z,18.87
2018-12-14T13:27:23.500Z,17.97
2018-12-14T13:29:52.978Z,16.90
2018-12-14T13:32:24.038Z,17.40
2018-12-14T13:34:53.150Z,20.20
2018-12-14T13:37:23.628Z,18.07
2018-12-14T13:39:53.754Z,16.83
2018-12-14T13:42:23.303Z,16.00
2018-12-14T13:44:53.573Z,15.27
2018-12-14T13:47:22.052Z,16.37
2018-12-14T13:49:54.195Z,16.93
2018-12-14T13:52:24.832Z,17.30
2018-12-14T13:55:01.340Z,16.70
2018-12-14T13:57:41.966Z,15.87
2018-12-14T14:00:16.273Z,13.17
2018-12-14T14:02:46.521Z,13.57
2018-12-14T14:05:18.499Z,13.40
2018-12-14T14:07:49.317Z,15.80
2018-12-14T14:10:18.275Z,15.50
2018-12-14T14:12:50.452Z,18.00
2018-12-14T14:15:34.844Z,16.87
2018-12-14T14:18:04.974Z,13.13
2018-12-14T14:20:34.973Z,12.90
2018-12-14T14:23:05.254Z,12.27
2018-12-14T14:25:35.269Z,14.47
2018-12-14T14:28:05.948Z,12.03
2018-12-14T14:30:35.017Z,15.27
2018-12-14T14:33:03.790Z,16.57
2018-12-14T14:35:35.227Z,12.57
2018-12-14T14:38:05.927Z,11.43
2018-12-14T14:40:34.631Z,14.47
2018-12-14T14:43:04.009Z,13.03
2018-12-14T14:45:33.071Z,10.77
2018-12-14T14:48:02.878Z,10.37
2018-12-14T14:50:31.686Z,12.33
2018-12-14T14:53:00.366Z,13.73
2018-12-14T14:55:28.973Z,13.43
2018-12-14T14:58:00.940Z,12.43
2018-12-14T15:00:32.091Z,17.17
2018-12-14T15:03:02.539Z,14.97
2018-12-14T15:05:32.387Z,11.73
2018-12-14T15:08:00.847Z,16.10
2018-12-14T15:10:30.039Z,19.30
2018-12-14T15:12:58.955Z,17.63
2018-12-14T15:15:28.784Z,16.00
2018-12-14T15:17:57.657Z,19.47
2018-12-14T15:20:27.255Z,12.33
2018-12-14T15:22:56.404Z,17.67
2018-12-14T15:25:26.211Z,14.70
2018-12-14T15:27:55.433Z,14.07
2018-12-14T15:30:24.966Z,15.47
2018-12-14T15:32:53.828Z,14.60
2018-12-14T15:35:22.772Z,13.93
2018-12-14T15:37:51.861Z,16.70
2018-12-14T15:40:21.748Z,15.20
2018-12-14T15:42:51.441Z,15.30
2018-12-14T15:45:20.317Z,13.40
2018-12-14T15:47:49.738Z,12.53
2018-12-14T15:50:18.610Z,17.80
2018-12-14T15:52:48.495Z,17.23
2018-12-14T15:55:19.526Z,15.17
2018-12-14T15:57:54.878Z,20.67
2018-12-14T16:00:26.563Z,13.43
2018-12-14T16:02:55.762Z,18.30
2018-12-14T16:05:24.978Z,20.27
2018-12-14T16:07:56.609Z,17.53
2018-12-14T16:10:25.680Z,16.77
2018-12-14T16:13:01.906Z,21.93
2018-12-14T16:15:31.283Z,17.57
2018-12-14T16:18:00.307Z,19.37
2018-12-14T16:20:29.514Z,20.93
2018-12-14T16:22:58.855Z,18.40
2018-12-14T16:25:29.657Z,13.63
2018-12-14T16:28:02.512Z,18.43
2018-12-14T16:30:34.031Z,16.07
2018-12-14T16:33:03.811Z,14.30
2018-12-14T16:35:41.883Z,19.83
2018-12-14T16:38:19.090Z,17.93
2018-12-14T16:40:51.174Z,15.77
2018-12-14T16:43:22.948Z,18.07
2018-12-14T16:45:53.470Z,17.13
2018-12-14T16:48:23.097Z,17.73
2018-12-14T16:53:39.634Z,19.03
2018-12-14T16:56:08.798Z,16.50
2018-12-14T16:58:47.291Z,16.43
2018-12-14T17:01:16.821Z,17.33
2018-12-14T17:03:46.187Z,14.33
2018-12-14T17:06:20.546Z,22.00
2018-12-14T17:08:58.383Z,15.33
2018-12-14T17:11:28.876Z,24.67
2018-12-14T17:14:08.362Z,19.50
2018-12-14T17:16:39.788Z,24.57
2018-12-14T17:19:08.997Z,22.60
2018-12-14T17:21:39.279Z,21.80
2018-12-14T17:24:11.810Z,17.47
2018-12-14T17:26:40.810Z,22.60
2018-12-14T17:29:09.357Z,19.53
2018-12-14T17:31:39.858Z,22.70
2018-12-14T17:34:08.852Z,33.90
2018-12-14T17:36:40.841Z,26.37
2018-12-14T17:39:18.291Z,24.03
2018-12-14T17:41:46.855Z,22.77
2018-12-14T17:44:17.194Z,20.17
2018-12-14T17:46:46.626Z,29.37
2018-12-14T17:49:15.429Z,28.23
2018-12-14T17:51:51.206Z,27.07
2018-12-14T17:54:29.535Z,31.13
2018-12-14T17:57:04.269Z,19.73
2018-12-14T17:59:32.950Z,23.23
2018-12-14T18:02:06.394Z,21.83
2018-12-14T18:08:11.091Z,21.07
2018-12-14T18:12:02.346Z,20.47
2018-12-14T18:14:56.195Z,14.67
2018-12-14T18:17:48.641Z,15.40
2018-12-14T18:20:26.848Z,18.83
2018-12-14T18:26:44.223Z,16.20
2018-12-14T19:22:51.672Z,18.00
2018-12-14T19:25:20.328Z,15.83
2018-12-14T19:27:50.461Z,20.97
2018-12-14T19:30:28.570Z,23.47
2018-12-14T19:32:58.520Z,17.83
2018-12-14T19:35:27.903Z,20.97
2018-12-14T19:37:59.313Z,21.57
2018-12-14T19:40:28.976Z,18.57
2018-12-14T19:43:05.971Z,18.73
2018-12-14T19:45:39.632Z,19.17
2018-12-14T19:48:15.787Z,22.23
2018-12-14T19:50:49.224Z,21.53
2018-12-14T19:53:18.955Z,17.87
2018-12-14T19:55:52.633Z,22.40
2018-12-14T20:01:25.406Z,24.83
2018-12-14T20:03:54.372Z,19.80
2018-12-14T20:06:23.040Z,19.50
2018-12-14T20:08:51.704Z,23.20
2018-12-14T20:11:20.233Z,18.73
2018-12-14T20:13:48.768Z,20.93
2018-12-14T20:16:17.326Z,25.27
2018-12-14T20:18:46.056Z,21.23
2018-12-14T20:21:14.698Z,20.00
2018-12-14T20:23:43.279Z,27.20
2018-12-14T20:26:11.806Z,21.33
2018-12-14T20:28:40.399Z,20.33
2018-12-14T20:31:08.938Z,20.90
2018-12-14T20:33:37.808Z,22.10
2018-12-14T20:36:06.470Z,23.53
2018-12-14T20:38:35.018Z,19.20
2018-12-14T20:41:03.710Z,25.10
2018-12-14T20:43:32.384Z,23.33
2018-12-14T20:46:01.566Z,27.67
2018-12-14T20:48:30.272Z,20.13
2018-12-14T20:50:59.847Z,25.03
2018-12-14T20:53:28.507Z,22.40
2018-12-14T20:55:57.577Z,23.97
2018-12-14T20:58:26.585Z,24.93
2018-12-14T21:00:55.262Z,29.93
2018-12-14T21:03:24.058Z,21.30
2018-12-14T21:05:52.622Z,27.83
2018-12-14T21:08:21.523Z,19.60
2018-12-14T21:10:50.171Z,22.23
2018-12-14T21:13:18.791Z,21.73
2018-12-14T21:15:48.273Z,23.10
2018-12-14T21:18:27.624Z,18.50
2018-12-14T21:21:03.716Z,25.73
2018-12-14T21:23:35.241Z,23.37
2018-12-14T21:26:04.246Z,21.80
2018-12-14T21:28:35.331Z,26.50
2018-12-14T21:31:06.645Z,21.63
2018-12-14T21:33:35.346Z,22.93
2018-12-14T21:36:04.542Z,27.10
2018-12-14T21:38:33.287Z,31.07
2018-12-14T21:41:01.866Z,23.93
2018-12-14T21:43:34.234Z,22.20
2018-12-14T21:46:03.662Z,24.77
2018-12-14T21:48:32.264Z,20.40
2018-12-14T21:51:00.788Z,24.37
2018-12-14T21:53:30.180Z,24.70
2018-12-14T21:55:58.815Z,21.97
2018-12-14T21:58:27.573Z,20.60
2018-12-14T22:00:56.322Z,23.60
2018-12-14T22:03:24.824Z,21.80
2018-12-14T22:05:53.291Z,25.50
2018-12-14T22:08:21.786Z,23.63
2018-12-14T22:10:50.900Z,21.97
2018-12-14T22:13:19.568Z,22.20
2018-12-14T22:15:48.277Z,20.03
2018-12-14T22:18:16.769Z,22.57
2018-12-14T22:20:45.326Z,27.93
2018-12-14T22:23:13.885Z,26.60
2018-12-14T22:25:42.416Z,28.70
2018-12-14T22:28:11.922Z,31.20
2018-12-14T22:30:41.435Z,25.97
2018-12-14T22:33:09.954Z,23.33
2018-12-14T22:35:38.649Z,28.60
2018-12-14T22:38:07.191Z,24.20
2018-12-14T22:40:35.697Z,23.13
2018-12-14T22:43:04.226Z,26.23
2018-12-14T22:45:32.908Z,27.00
2018-12-14T22:48:01.392Z,20.07
2018-12-14T22:50:29.883Z,22.40
2018-12-14T22:52:58.480Z,29.87
2018-12-14T22:55:26.975Z,21.83
2018-12-14T22:57:55.477Z,26.47
2018-12-14T23:00:24.235Z,22.23
2018-12-14T23:02:52.750Z,24.30
2018-12-14T23:05:21.247Z,24.77
2018-12-14T23:07:49.779Z,23.90
2018-12-14T23:10:18.299Z,28.00
2018-12-14T23:12:46.776Z,24.03
2018-12-14T23:15:15.257Z,26.17
2018-12-14T23:17:43.754Z,33.57
2018-12-14T23:20:12.270Z,23.00
2018-12-14T23:22:40.787Z,24.80
2018-12-14T23:25:09.284Z,28.83
2018-12-14T23:27:37.792Z,25.00
2018-12-14T23:30:08.763Z,24.17
2018-12-14T23:32:37.294Z,24.10
2018-12-14T23:35:06.889Z,29.50
2018-12-14T23:37:35.851Z,32.27
2018-12-14T23:40:04.597Z,29.40
2018-12-14T23:42:33.106Z,32.70
2018-12-14T23:45:01.631Z,25.00
2018-12-14T23:47:30.146Z,28.43
2018-12-14T23:49:59.038Z,24.50
2018-12-14T23:52:27.614Z,26.60
2018-12-14T23:54:56.872Z,32.00
2018-12-14T23:57:25.482Z,21.57
2018-12-14T23:59:55.000Z,28.80
